createdAt,value
2019-05-23T00:01:58.582Z,26.77
2019-05-23T00:04:35.175Z,27.10
2019-05-23T00:07:11.263Z,23.03
2019-05-23T00:09:44.150Z,25.77
2019-05-23T00:12:35.275Z,26.80
2019-05-23T00:15:15.714Z,26.63
2019-05-23T00:17:50.149Z,25.17
2019-05-23T00:20:23.341Z,23.97
2019-05-23T00:22:54.958Z,27.03
2019-05-23T00:25:29.475Z,25.20
2019-05-23T00:28:02.612Z,24.40
2019-05-23T00:30:56.678Z,22.17
2019-05-23T00:33:34.537Z,24.47
2019-05-23T00:36:07.373Z,23.97
2019-05-23T00:38:39.983Z,25.27
2019-05-23T00:41:15.914Z,25.00
2019-05-23T00:43:47.568Z,21.70
2019-05-23T00:46:22.058Z,26.00
2019-05-23T00:48:56.062Z,24.73
2019-05-23T00:51:28.514Z,22.17
2019-05-23T00:54:00.912Z,24.67
2019-05-23T00:56:34.795Z,24.97
2019-05-23T00:59:08.715Z,23.33
2019-05-23T01:01:42.867Z,25.67
2019-05-23T01:04:15.562Z,24.97
2019-05-23T01:06:51.095Z,24.80
2019-05-23T01:09:26.047Z,24.17
2019-05-23T01:11:58.639Z,25.97
2019-05-23T01:14:31.918Z,24.20
2019-05-23T01:17:03.806Z,23.70
2019-05-23T01:19:37.497Z,25.43
2019-05-23T01:22:11.054Z,25.23
2019-05-23T01:24:45.262Z,25.10
2019-05-23T01:27:17.713Z,24.10
2019-05-23T01:29:50.870Z,24.07
2019-05-23T01:32:25.418Z,24.13
2019-05-23T01:34:57.521Z,24.60
2019-05-23T01:37:29.492Z,22.37
2019-05-23T01:40:01.295Z,24.07
2019-05-23T01:42:33.726Z,24.00
2019-05-23T01:45:08.725Z,21.37
2019-05-23T01:47:41.406Z,25.83
2019-05-23T01:50:14.492Z,24.50
2019-05-23T01:52:48.309Z,21.47
2019-05-23T01:55:20.182Z,24.03
2019-05-23T01:57:51.932Z,24.80
2019-05-23T02:00:27.548Z,20.80
2019-05-23T02:03:00.002Z,24.77
2019-05-23T02:05:32.554Z,22.77
2019-05-23T02:08:04.857Z,21.03
2019-05-23T02:10:37.134Z,23.53
2019-05-23T02:13:08.947Z,24.03
2019-05-23T02:15:43.146Z,22.63
2019-05-23T02:18:15.666Z,24.37
2019-05-23T02:20:48.441Z,23.73
2019-05-23T02:23:20.447Z,23.47
2019-05-23T02:25:52.259Z,23.60
2019-05-23T02:28:24.185Z,24.03
2019-05-23T02:30:58.680Z,20.77
2019-05-23T02:33:31.711Z,24.27
2019-05-23T02:36:03.523Z,23.63
2019-05-23T02:38:37.523Z,23.20
2019-05-23T02:41:17.739Z,23.77
2019-05-23T02:43:51.916Z,23.93
2019-05-23T02:46:29.058Z,24.67
2019-05-23T02:49:04.824Z,25.60
2019-05-23T02:51:37.734Z,24.73
2019-05-23T02:54:14.014Z,25.50
2019-05-23T02:56:48.561Z,25.60
2019-05-23T02:59:23.506Z,25.53
2019-05-23T03:02:21.015Z,23.87
2019-05-23T03:04:52.210Z,25.47
2019-05-23T03:07:29.582Z,26.23
2019-05-23T03:10:01.982Z,25.97
2019-05-23T03:12:34.967Z,27.10
2019-05-23T03:15:08.817Z,26.60
2019-05-23T03:17:41.811Z,25.00
2019-05-23T03:20:13.917Z,26.07
2019-05-23T03:22:52.045Z,22.53
2019-05-23T03:25:41.067Z,25.27
2019-05-23T03:28:14.262Z,24.83
2019-05-23T03:30:49.085Z,25.07
2019-05-23T03:33:23.884Z,25.90
2019-05-23T03:35:59.607Z,25.63
2019-05-23T03:38:32.491Z,24.77
2019-05-23T03:41:08.171Z,25.63
2019-05-23T03:43:40.940Z,25.77
2019-05-23T03:46:15.012Z,25.83
2019-05-23T03:48:47.520Z,25.17
2019-05-23T03:51:21.070Z,25.50
2019-05-23T03:53:52.555Z,26.00
2019-05-23T03:56:26.261Z,21.33
2019-05-23T03:58:59.770Z,24.83
2019-05-23T04:01:47.143Z,23.63
2019-05-23T04:04:06.910Z,24.70
2019-05-23T04:06:39.760Z,24.67
2019-05-23T04:09:14.889Z,22.13
2019-05-23T04:11:49.191Z,24.73
2019-05-23T04:14:22.295Z,26.00
2019-05-23T04:16:55.034Z,25.53
2019-05-23T04:19:26.742Z,22.73
2019-05-23T04:21:59.433Z,25.00
2019-05-23T04:24:32.115Z,24.90
2019-05-23T04:27:04.986Z,22.50
2019-05-23T04:29:37.056Z,26.43
2019-05-23T04:32:09.877Z,26.23
2019-05-23T04:34:44.733Z,25.93
2019-05-23T04:37:16.602Z,22.40
2019-05-23T04:39:49.546Z,25.33
2019-05-23T04:42:21.591Z,27.93
2019-05-23T04:44:55.575Z,26.47
2019-05-23T04:47:28.338Z,27.70
2019-05-23T04:50:03.898Z,24.13
2019-05-23T04:52:35.447Z,28.27
2019-05-23T04:55:12.012Z,28.67
2019-05-23T04:57:44.607Z,29.83
2019-05-23T05:00:20.120Z,29.37
2019-05-23T05:02:53.327Z,28.60
2019-05-23T05:05:26.446Z,25.77
2019-05-23T05:07:59.187Z,28.80
2019-05-23T05:10:31.975Z,29.37
2019-05-23T05:13:07.212Z,29.10
2019-05-23T05:15:40.153Z,26.27
2019-05-23T05:18:13.982Z,30.27
2019-05-23T05:20:46.397Z,30.23
2019-05-23T05:23:19.304Z,26.77
2019-05-23T05:25:50.711Z,29.80
2019-05-23T05:28:23.495Z,29.50
2019-05-23T05:30:58.121Z,32.07
2019-05-23T05:33:31.070Z,30.90
2019-05-23T05:36:04.152Z,29.77
2019-05-23T05:38:35.693Z,30.10
2019-05-23T05:41:09.252Z,28.67
2019-05-23T05:43:41.040Z,29.43
2019-05-23T05:46:14.062Z,27.90
2019-05-23T05:48:47.073Z,27.87
2019-05-23T05:51:18.615Z,28.20
2019-05-23T05:53:52.069Z,28.80
2019-05-23T05:56:24.538Z,27.30
2019-05-23T05:58:55.962Z,27.67
2019-05-23T06:01:33.801Z,27.57
2019-05-23T06:04:05.582Z,26.47
2019-05-23T06:06:40.248Z,28.00
2019-05-23T06:09:17.405Z,28.43
2019-05-23T06:11:50.674Z,27.13
2019-05-23T06:14:24.059Z,32.97
2019-05-23T06:16:56.804Z,28.63
2019-05-23T06:19:30.187Z,26.97
2019-05-23T06:22:03.139Z,27.93
2019-05-23T06:24:44.031Z,27.90
2019-05-23T06:27:10.558Z,29.47
2019-05-23T06:29:43.220Z,30.37
2019-05-23T06:32:19.262Z,29.80
2019-05-23T06:34:53.908Z,30.00
2019-05-23T06:37:27.117Z,32.47
2019-05-23T06:39:58.648Z,29.47
2019-05-23T06:42:31.330Z,31.60
2019-05-23T06:45:04.572Z,31.07
2019-05-23T06:47:36.440Z,29.87
2019-05-23T06:50:12.663Z,31.20
2019-05-23T06:52:45.609Z,32.27
2019-05-23T06:55:18.335Z,31.97
2019-05-23T06:57:50.707Z,31.97
2019-05-23T07:00:23.722Z,31.77
2019-05-23T07:02:55.279Z,33.20
2019-05-23T07:05:33.703Z,34.93
2019-05-23T07:08:08.392Z,35.70
2019-05-23T07:10:43.402Z,35.03
2019-05-23T07:13:16.853Z,35.83
2019-05-23T07:15:48.808Z,36.87
2019-05-23T07:18:22.352Z,36.87
2019-05-23T07:20:53.813Z,34.90
2019-05-23T07:23:26.959Z,38.73
2019-05-23T07:25:59.523Z,38.97
2019-05-23T07:28:31.978Z,37.23
2019-05-23T07:31:05.440Z,37.43
2019-05-23T07:33:37.350Z,38.23
2019-05-23T07:36:09.195Z,36.90
2019-05-23T07:38:43.409Z,37.80
2019-05-23T07:41:16.402Z,36.77
2019-05-23T07:43:48.242Z,36.73
2019-05-23T07:46:20.010Z,36.10
2019-05-23T07:48:53.983Z,37.17
2019-05-23T07:51:29.637Z,35.37
2019-05-23T07:54:03.773Z,36.97
2019-05-23T07:56:37.187Z,36.43
2019-05-23T07:59:10.429Z,36.67
2019-05-23T08:01:45.992Z,36.20
2019-05-23T08:04:22.357Z,34.00
2019-05-23T08:06:52.834Z,30.80
2019-05-23T08:09:25.842Z,24.53
2019-05-23T08:11:57.605Z,29.77
2019-05-23T08:14:28.926Z,27.20
2019-05-23T08:17:01.779Z,24.30
2019-05-23T08:19:48.564Z,19.80
2019-05-23T08:22:09.996Z,21.17
2019-05-23T08:24:43.132Z,20.77
2019-05-23T08:27:15.735Z,55.00
2019-05-23T08:29:48.499Z,24.10
2019-05-23T08:32:20.077Z,23.07
2019-05-23T08:34:52.697Z,20.97
2019-05-23T08:37:25.694Z,18.80
2019-05-23T08:39:58.619Z,21.17
2019-05-23T08:42:31.645Z,16.57
2019-05-23T08:45:04.430Z,18.63
2019-05-23T08:47:37.566Z,18.70
2019-05-23T08:50:11.179Z,17.03
2019-05-23T08:52:43.899Z,17.87
2019-05-23T08:55:25.885Z,17.93
2019-05-23T08:57:57.882Z,18.23
2019-05-23T09:00:30.433Z,19.87
2019-05-23T09:03:02.526Z,19.33
2019-05-23T09:05:35.866Z,20.17
2019-05-23T09:08:09.532Z,18.97
2019-05-23T09:10:42.451Z,18.60
2019-05-23T09:13:14.092Z,18.23
2019-05-23T09:15:45.834Z,18.10
2019-05-23T09:18:18.630Z,17.50
2019-05-23T09:20:50.106Z,15.43
2019-05-23T09:23:21.851Z,15.63
2019-05-23T09:25:54.141Z,15.23
2019-05-23T09:28:25.932Z,12.00
2019-05-23T09:30:58.654Z,12.80
2019-05-23T09:33:30.823Z,11.90
2019-05-23T09:36:03.700Z,11.20
2019-05-23T09:38:37.066Z,12.47
2019-05-23T09:41:11.916Z,11.47
2019-05-23T09:43:45.402Z,11.10
2019-05-23T09:46:17.763Z,10.17
2019-05-23T09:48:49.342Z,11.23
2019-05-23T09:51:22.212Z,11.03
2019-05-23T09:53:55.027Z,11.40
2019-05-23T09:56:28.664Z,10.63
2019-05-23T09:59:00.239Z,10.67
2019-05-23T10:01:32.664Z,11.17
2019-05-23T10:04:05.899Z,12.20
2019-05-23T10:06:39.049Z,12.10
2019-05-23T10:09:12.490Z,13.27
2019-05-23T10:11:44.155Z,11.50
2019-05-23T10:14:31.930Z,12.00
2019-05-23T10:17:03.684Z,11.90
2019-05-23T10:19:36.681Z,11.37
2019-05-23T10:22:09.701Z,12.83
2019-05-23T10:24:42.144Z,46.20
2019-05-23T10:27:14.339Z,13.13
2019-05-23T10:29:46.979Z,12.27
2019-05-23T10:32:19.994Z,12.13
2019-05-23T10:34:53.372Z,10.60
2019-05-23T10:37:26.169Z,9.63
2019-05-23T10:39:58.942Z,8.50
2019-05-23T10:42:32.323Z,8.27
2019-05-23T10:45:06.897Z,8.60
2019-05-23T10:47:38.457Z,9.17
2019-05-23T10:50:11.142Z,8.93
2019-05-23T10:52:43.508Z,9.00
2019-05-23T10:55:18.316Z,8.77
2019-05-23T10:57:50.831Z,9.10
2019-05-23T11:00:27.643Z,8.20
2019-05-23T11:03:00.074Z,10.23
2019-05-23T11:05:32.581Z,9.73
2019-05-23T11:08:03.886Z,9.20
2019-05-23T11:10:35.645Z,10.37
2019-05-23T11:13:08.468Z,10.43
2019-05-23T11:15:40.974Z,9.43
2019-05-23T11:18:13.399Z,9.10
2019-05-23T11:20:46.192Z,9.10
2019-05-23T11:23:19.773Z,8.40
2019-05-23T11:25:51.601Z,9.53
2019-05-23T11:28:23.655Z,10.87
2019-05-23T11:30:57.026Z,10.30
2019-05-23T11:33:30.780Z,9.70
2019-05-23T11:36:03.087Z,9.10
2019-05-23T11:38:34.828Z,9.97
2019-05-23T11:41:07.370Z,8.83
2019-05-23T11:43:40.045Z,8.87
2019-05-23T11:46:13.130Z,10.07
2019-05-23T11:48:46.508Z,10.37
2019-05-23T11:51:24.470Z,9.93
2019-05-23T11:54:06.695Z,9.23
2019-05-23T11:56:28.329Z,8.57
2019-05-23T11:59:01.739Z,9.40
2019-05-23T12:01:51.054Z,9.87
2019-05-23T12:04:23.645Z,9.67
2019-05-23T12:06:56.841Z,10.03
2019-05-23T12:09:28.729Z,8.90
2019-05-23T12:12:01.147Z,9.97
2019-05-23T12:14:35.403Z,8.43
2019-05-23T12:17:08.741Z,8.63
2019-05-23T12:19:42.323Z,7.57
2019-05-23T12:22:16.330Z,7.37
2019-05-23T12:24:49.294Z,7.97
2019-05-23T12:27:20.629Z,7.67
2019-05-23T12:29:52.140Z,8.27
2019-05-23T12:32:24.050Z,8.93
2019-05-23T12:35:10.366Z,8.50
2019-05-23T12:37:30.394Z,8.63
2019-05-23T12:40:03.359Z,8.00
2019-05-23T12:42:33.883Z,6.80
2019-05-23T12:45:07.102Z,5.70
2019-05-23T12:47:42.219Z,5.47
2019-05-23T12:50:14.106Z,4.97
2019-05-23T12:52:46.479Z,5.83
2019-05-23T12:55:16.581Z,5.53
2019-05-23T12:57:47.827Z,4.80
2019-05-23T13:00:27.154Z,4.57
2019-05-23T13:02:57.375Z,4.40
2019-05-23T13:05:28.410Z,4.77
2019-05-23T13:07:59.796Z,4.60
2019-05-23T13:10:30.378Z,5.07
2019-05-23T13:13:00.901Z,6.67
2019-05-23T13:15:31.725Z,4.20
2019-05-23T13:18:01.996Z,3.87
2019-05-23T13:20:33.417Z,3.50
2019-05-23T13:23:04.088Z,4.00
2019-05-23T13:25:35.574Z,3.87
2019-05-23T13:28:07.118Z,4.10
2019-05-23T13:30:38.136Z,3.93
2019-05-23T13:33:08.258Z,4.60
2019-05-23T13:35:39.673Z,4.23
2019-05-23T13:38:10.179Z,4.90
2019-05-23T13:40:40.794Z,4.03
2019-05-23T13:43:11.027Z,3.70
2019-05-23T13:45:41.327Z,4.60
2019-05-23T13:48:11.839Z,6.23
2019-05-23T13:50:43.140Z,33.97
2019-05-23T13:53:16.402Z,5.90
2019-05-23T13:55:51.721Z,3.47
2019-05-23T13:58:22.761Z,3.97
2019-05-23T14:00:55.566Z,4.10
2019-05-23T14:03:29.448Z,3.93
2019-05-23T14:06:00.001Z,4.03
2019-05-23T14:08:30.711Z,3.97
2019-05-23T14:11:00.930Z,3.47
2019-05-23T14:13:33.355Z,3.67
2019-05-23T14:16:07.195Z,3.57
2019-05-23T14:18:38.567Z,3.43
2019-05-23T14:21:08.636Z,3.30
2019-05-23T14:23:39.838Z,3.10
2019-05-23T14:26:11.714Z,3.40
2019-05-23T14:28:41.911Z,2.97
2019-05-23T14:31:13.612Z,3.30
2019-05-23T14:33:52.242Z,3.53
2019-05-23T14:36:43.499Z,3.00
2019-05-23T14:39:16.322Z,3.60
2019-05-23T14:41:51.172Z,3.50
2019-05-23T14:44:22.387Z,3.20
2019-05-23T14:46:54.994Z,2.90
2019-05-23T14:49:26.724Z,3.10
2019-05-23T14:51:59.765Z,3.10
2019-05-23T14:54:33.264Z,2.77
2019-05-23T14:57:06.955Z,2.90
2019-05-23T14:59:38.595Z,3.00
2019-05-23T15:02:10.862Z,3.47
2019-05-23T15:04:43.154Z,3.77
2019-05-23T15:07:14.826Z,3.30
2019-05-23T15:09:47.129Z,3.93
2019-05-23T15:12:19.901Z,3.97
2019-05-23T15:14:52.442Z,2.80
2019-05-23T15:17:25.767Z,2.70
2019-05-23T15:19:57.420Z,2.80
2019-05-23T15:22:30.062Z,2.80
2019-05-23T15:25:02.561Z,2.90
2019-05-23T15:27:34.470Z,3.03
2019-05-23T15:30:07.377Z,2.87
2019-05-23T15:32:39.158Z,3.17
2019-05-23T15:35:11.572Z,3.10
2019-05-23T15:37:43.591Z,3.17
2019-05-23T15:40:17.655Z,3.00
2019-05-23T15:42:49.563Z,3.13
2019-05-23T15:45:21.523Z,3.13
2019-05-23T15:47:55.033Z,3.40
2019-05-23T15:50:28.570Z,10.07
2019-05-23T15:53:13.642Z,3.07
2019-05-23T15:55:50.771Z,3.30
2019-05-23T15:58:33.326Z,3.27
2019-05-23T16:01:14.730Z,2.90
2019-05-23T16:03:47.218Z,3.00
2019-05-23T16:06:21.903Z,3.03
2019-05-23T16:08:55.192Z,3.80
2019-05-23T16:11:28.014Z,3.70
2019-05-23T16:14:00.348Z,3.53
2019-05-23T16:16:32.266Z,3.00
2019-05-23T16:21:55.302Z,3.87
2019-05-23T16:24:26.921Z,3.80
2019-05-23T16:27:00.965Z,3.40
2019-05-23T16:29:34.281Z,3.53
2019-05-23T16:32:06.168Z,3.77
2019-05-23T16:34:38.946Z,4.37
2019-05-23T16:37:11.880Z,3.70
2019-05-23T16:39:48.253Z,3.47
2019-05-23T16:42:19.198Z,3.37
2019-05-23T16:44:50.884Z,2.90
2019-05-23T16:47:31.358Z,3.30
2019-05-23T16:50:04.419Z,3.27
2019-05-23T16:52:38.363Z,3.17
2019-05-23T16:55:11.910Z,2.70
2019-05-23T16:57:54.719Z,3.30
2019-05-23T17:00:44.988Z,2.97
2019-05-23T17:03:21.408Z,2.80
2019-05-23T17:05:57.198Z,3.00
2019-05-23T17:08:34.431Z,3.00
2019-05-23T17:11:10.697Z,3.23
2019-05-23T17:13:55.738Z,3.23
2019-05-23T17:16:28.847Z,3.50
2019-05-23T17:19:06.030Z,3.70
2019-05-23T17:21:39.484Z,3.83
2019-05-23T17:24:11.866Z,4.30
2019-05-23T17:26:55.366Z,4.00
2019-05-23T17:29:37.438Z,3.90
2019-05-23T17:32:10.575Z,4.00
2019-05-23T17:34:44.030Z,3.63
2019-05-23T17:37:17.881Z,4.30
2019-05-23T17:39:53.222Z,4.40
2019-05-23T17:42:23.769Z,4.53
2019-05-23T17:44:56.010Z,4.53
2019-05-23T17:47:28.693Z,3.97
2019-05-23T17:50:04.238Z,4.27
2019-05-23T17:52:36.541Z,4.40
2019-05-23T17:55:09.102Z,4.37
2019-05-23T17:57:41.458Z,3.90
2019-05-23T18:00:15.937Z,4.70
2019-05-23T18:02:47.491Z,4.40
2019-05-23T18:05:20.124Z,4.93
2019-05-23T18:07:52.989Z,4.50
2019-05-23T18:10:43.310Z,4.67
2019-05-23T18:13:00.551Z,4.50
2019-05-23T18:15:32.170Z,5.10
2019-05-23T18:18:04.845Z,4.90
2019-05-23T18:20:37.612Z,5.50
2019-05-23T18:23:10.580Z,5.20
2019-05-23T18:25:41.242Z,5.50
2019-05-23T18:28:12.766Z,5.90
2019-05-23T18:31:05.955Z,5.30
2019-05-23T18:33:34.270Z,5.80
2019-05-23T18:36:06.105Z,5.87
2019-05-23T18:38:38.042Z,6.00
2019-05-23T18:41:09.588Z,5.70
2019-05-23T18:43:39.954Z,6.10
2019-05-23T18:46:13.402Z,6.00
2019-05-23T18:48:46.730Z,5.70
2019-05-23T18:51:18.154Z,7.50
2019-05-23T18:53:49.300Z,7.13
2019-05-23T18:56:19.318Z,6.30
2019-05-23T18:58:51.912Z,4.83
2019-05-23T19:01:26.483Z,4.13
2019-05-23T19:03:57.081Z,4.13
2019-05-23T19:06:26.793Z,3.60
2019-05-23T19:08:58.295Z,3.20
2019-05-23T19:11:29.259Z,3.30
2019-05-23T19:14:03.227Z,3.03
2019-05-23T19:16:35.143Z,3.03
2019-05-23T19:19:06.932Z,4.00
2019-05-23T19:21:38.490Z,2.90
2019-05-23T19:24:09.226Z,3.03
2019-05-23T19:26:41.483Z,2.97
2019-05-23T19:29:13.548Z,2.90
2019-05-23T19:31:45.006Z,2.70
2019-05-23T19:34:15.777Z,2.50
2019-05-23T19:36:47.379Z,2.70
2019-05-23T19:39:20.366Z,2.50
2019-05-23T19:41:52.500Z,2.83
2019-05-23T19:44:23.492Z,2.87
2019-05-23T19:46:57.097Z,2.73
2019-05-23T19:49:28.200Z,3.10
2019-05-23T19:51:58.660Z,2.43
2019-05-23T19:54:29.214Z,2.90
2019-05-23T19:56:59.347Z,3.20
2019-05-23T19:59:30.478Z,2.73
2019-05-23T20:02:11.674Z,2.60
2019-05-23T20:04:44.413Z,2.70
2019-05-23T20:07:15.720Z,2.90
2019-05-23T20:09:49.221Z,2.90
2019-05-23T20:12:20.750Z,2.97
2019-05-23T20:14:52.123Z,3.10
2019-05-23T20:17:22.918Z,2.90
2019-05-23T20:19:53.087Z,2.70
2019-05-23T20:22:22.611Z,2.97
2019-05-23T20:24:52.691Z,3.00
2019-05-23T20:27:22.890Z,2.67
2019-05-23T20:29:54.380Z,3.20
2019-05-23T20:32:25.923Z,2.97
2019-05-23T20:34:56.994Z,2.67
2019-05-23T20:37:29.230Z,2.80
2019-05-23T20:40:00.159Z,2.63
2019-05-23T20:42:30.686Z,2.80
2019-05-23T20:45:00.843Z,3.10
2019-05-23T20:47:32.487Z,3.50
2019-05-23T20:50:04.062Z,3.00
2019-05-23T20:52:36.879Z,3.60
2019-05-23T20:55:08.957Z,3.47
2019-05-23T20:57:38.630Z,3.20
2019-05-23T21:00:11.842Z,3.60
2019-05-23T21:02:41.933Z,4.33
2019-05-23T21:05:13.303Z,3.67
2019-05-23T21:07:43.588Z,5.30
2019-05-23T21:10:17.971Z,4.33
2019-05-23T21:12:49.875Z,4.03
2019-05-23T21:15:21.853Z,4.50
2019-05-23T21:17:53.222Z,4.50
2019-05-23T21:20:25.138Z,5.00
2019-05-23T21:22:56.441Z,4.80
2019-05-23T21:25:27.185Z,5.20
2019-05-23T21:27:58.148Z,5.10
2019-05-23T21:30:29.241Z,4.50
2019-05-23T21:33:00.586Z,4.60
2019-05-23T21:35:33.081Z,4.90
2019-05-23T21:38:04.554Z,5.03
2019-05-23T21:40:41.353Z,4.23
2019-05-23T21:43:12.649Z,4.87
2019-05-23T21:45:44.190Z,4.70
2019-05-23T21:48:15.361Z,4.80
2019-05-23T21:50:45.582Z,4.60
2019-05-23T21:53:16.643Z,4.57
2019-05-23T21:55:46.726Z,5.10
2019-05-23T21:58:18.526Z,4.60
2019-05-23T22:01:08.894Z,4.80
2019-05-23T22:03:41.676Z,4.60
2019-05-23T22:06:16.157Z,4.70
2019-05-23T22:08:50.241Z,5.43
2019-05-23T22:11:20.549Z,4.83
2019-05-23T22:13:50.647Z,4.83
2019-05-23T22:16:22.284Z,5.13
2019-05-23T22:18:53.423Z,4.90
2019-05-23T22:21:23.534Z,5.20
2019-05-23T22:23:54.379Z,5.20
2019-05-23T22:26:25.388Z,5.30
2019-05-23T22:28:56.742Z,4.70
2019-05-23T22:31:27.438Z,5.13
2019-05-23T22:34:00.494Z,5.23
2019-05-23T22:36:33.605Z,5.20
2019-05-23T22:39:10.056Z,4.90
2019-05-23T22:41:41.802Z,5.23
2019-05-23T22:44:12.326Z,5.47
2019-05-23T22:46:43.298Z,5.03
2019-05-23T22:49:15.415Z,5.20
2019-05-23T22:51:47.673Z,5.23
2019-05-23T22:54:19.385Z,4.80
2019-05-23T22:56:52.529Z,4.33
2019-05-23T22:59:22.891Z,4.80
2019-05-23T23:01:54.133Z,4.77
2019-05-23T23:04:26.028Z,4.70
2019-05-23T23:06:57.441Z,4.13
2019-05-23T23:09:29.464Z,4.87
2019-05-23T23:11:59.847Z,4.70
2019-05-23T23:14:30.866Z,4.03
2019-05-23T23:17:00.860Z,4.57
2019-05-23T23:19:33.435Z,4.80
2019-05-23T23:22:05.885Z,4.50
2019-05-23T23:24:36.811Z,5.03
2019-05-23T23:27:08.108Z,4.60
2019-05-23T23:29:41.373Z,5.00
2019-05-23T23:32:12.632Z,4.63
2019-05-23T23:34:44.499Z,4.27
2019-05-23T23:37:16.564Z,4.90
2019-05-23T23:39:47.903Z,4.43
2019-05-23T23:42:18.434Z,5.37
2019-05-23T23:44:49.001Z,4.97
2019-05-23T23:47:38.107Z,4.67
2019-05-23T23:50:26.314Z,4.97
2019-05-23T23:53:14.648Z,4.80
2019-05-23T23:56:03.243Z,4.77
2019-05-23T23:58:33.534Z,4.73
